Cleveland, OH

5:57 PM EST on December 06, 2016 (GMT -0500)
Cleveland-Hopkins International | | Change Station

Elev 804 ft 41.40 °N, 81.85 °W | Updated 6 minutes ago

Overcast
Overcast
41 °F
Feels Like 41 °F
N
0
Wind Variable Wind from North

Today
High -- | Low -- °F
--% Chance of Precip.
Yesterday
High -- | Low -- °F
Precip. -- in
Pressure 29.74 in
Visibility 6.0 miles
Clouds Mostly Cloudy 1000 ft
Overcast 1900 ft
Dew Point 37 °F
Humidity 86%
Rainfall 0.48 in
Snow Depth Not available.
7:39 AM 4:57 PM
Waxing Crescent, 46% visible
METAR KCLE 062251Z 00000KT 6SM BR BKN010 OVC019 05/03 A2973 RMK AO2 RAE2158 SLP071 P0000 T00500028
Pressure 29.74 in
Visibility 6.0 miles
Clouds Mostly Cloudy 1000 ft
Overcast 1900 ft
Dew Point 37 °F
Humidity 86%
Rainfall 0.48 in
Snow Depth Not available.
7:39 AM 4:57 PM
Waxing Crescent, 46% visible
METAR KCLE 062251Z 00000KT 6SM BR BKN010 OVC019 05/03 A2973 RMK AO2 RAE2158 SLP071 P0000 T00500028

10-Day Weather Forecast

Almanac

Astronomy

Dec. 06, 2016 Rise Set
Actual Time
Civil Twilight
Nautical Twilight
Astronomical Twilight
Moon
Length of Visible Light
Length of Day
Tomorrow will be .
, % of the Moon is Illuminated

Today's Extremes

State Highs State Lows

Community

WunderPhotos

Upload Photos

1,956,042 photos uploaded!

WunderBlog® & News

Nearby

Air Quality

  Air Quality AQ Index Pollutant
Not available.

Snow Depth

Station Depth Elevation

Earthquake Activity

City Distance Mag. Time & Date
Minimum magnitude displayed is 2.5.

Coastal Water Temperatures

Place Temperature

Stations

Nearby Weather Stations

Station Location Temp. Windchill Dew Point Humidity Wind Precip. Elev Updated Type
                   

Watches & Warnings

There are currently no watches in effect.